createdAt,value
2023-01-10T00:01:45.501Z,100454.88
2023-01-10T00:04:13.452Z,100461.84
2023-01-10T00:06:41.398Z,100458.06
2023-01-10T00:09:10.513Z,100469.75
2023-01-10T00:11:55.894Z,100467.19
2023-01-10T00:14:28.695Z,100470.38
2023-01-10T00:16:57.205Z,100481.97
2023-01-10T00:19:25.113Z,100477.88
2023-01-10T00:21:53.398Z,100487.25
2023-01-10T00:24:23.527Z,100487.13
2023-01-10T00:26:52.710Z,100496.81
2023-01-10T00:29:22.095Z,100490.28
2023-01-10T00:31:51.429Z,100495.63
2023-01-10T00:34:19.285Z,100495.00
2023-01-10T00:36:48.532Z,100494.88
2023-01-10T00:39:19.721Z,100497.31
2023-01-10T00:42:05.108Z,100494.78
2023-01-10T00:44:33.001Z,100499.25
2023-01-10T00:47:02.305Z,100510.91
2023-01-10T00:49:30.181Z,100513.84
2023-01-10T00:51:59.635Z,100517.59
2023-01-10T00:54:27.570Z,100516.47
2023-01-10T00:56:55.449Z,100522.31
2023-01-10T00:59:23.756Z,100519.44
2023-01-10T01:01:51.939Z,100528.16
2023-01-10T01:04:21.249Z,100530.09
2023-01-10T01:06:50.819Z,100535.69
2023-01-10T01:09:18.985Z,100541.25
2023-01-10T01:11:46.885Z,100537.63
2023-01-10T01:14:14.961Z,100545.88
2023-01-10T01:16:42.884Z,100556.53
2023-01-10T01:19:11.202Z,100558.97
2023-01-10T01:21:40.512Z,100569.44
2023-01-10T01:24:09.837Z,100578.16
2023-01-10T01:26:37.794Z,100568.25
2023-01-10T01:29:05.680Z,100578.72
2023-01-10T01:31:33.730Z,100579.84
2023-01-10T01:34:01.779Z,100586.66
2023-01-10T01:36:29.657Z,100594.19
2023-01-10T01:38:58.944Z,100599.06
2023-01-10T01:41:59.068Z,100611.94
2023-01-10T01:44:32.698Z,100623.78
2023-01-10T01:47:05.591Z,100629.81
2023-01-10T01:49:38.724Z,100628.16
2023-01-10T01:52:11.629Z,100636.38
2023-01-10T01:54:40.975Z,100633.22
2023-01-10T01:57:13.961Z,100631.66
2023-01-10T01:59:44.417Z,100634.81
2023-01-10T02:02:17.863Z,100636.47
2023-01-10T02:04:52.439Z,100641.25
2023-01-10T02:07:22.562Z,100648.91
2023-01-10T02:09:55.386Z,100649.69
2023-01-10T02:12:24.083Z,100648.56
2023-01-10T02:14:54.218Z,100656.88
2023-01-10T02:17:22.134Z,100657.91
2023-01-10T02:19:54.159Z,100662.38
2023-01-10T02:22:55.417Z,100661.91
2023-01-10T02:26:00.636Z,100666.59
2023-01-10T02:29:04.233Z,100670.59
2023-01-10T02:31:43.159Z,100667.88
2023-01-10T02:34:19.110Z,100670.69
2023-01-10T02:36:58.410Z,100677.66
2023-01-10T02:39:35.626Z,100684.72
2023-01-10T02:42:08.249Z,100687.69
2023-01-10T02:44:42.823Z,100685.16
2023-01-10T02:47:10.861Z,100681.78
2023-01-10T02:49:48.209Z,100684.63
2023-01-10T02:52:21.993Z,100686.75
2023-01-10T02:54:52.306Z,100691.19
2023-01-10T02:57:32.758Z,100698.59
2023-01-10T03:00:32.436Z,100701.97
2023-01-10T03:03:19.075Z,100707.47
2023-01-10T03:05:59.875Z,100714.09
2023-01-10T03:08:35.539Z,100719.63
2023-01-10T03:11:05.561Z,100724.63
2023-01-10T03:13:40.790Z,100735.97
2023-01-10T03:16:14.055Z,100742.91
2023-01-10T03:18:44.568Z,100742.16
2023-01-10T03:21:14.575Z,100742.56
2023-01-10T03:23:43.332Z,100753.75
2023-01-10T03:26:13.052Z,100762.72
2023-01-10T03:28:47.537Z,100769.78
2023-01-10T03:31:19.589Z,100781.00
2023-01-10T03:33:48.904Z,100777.69
2023-01-10T03:36:30.969Z,100790.66
2023-01-10T03:39:07.331Z,100793.53
2023-01-10T03:41:40.851Z,100797.22
2023-01-10T03:44:34.780Z,100802.78
2023-01-10T03:47:09.186Z,100811.41
2023-01-10T03:49:40.498Z,100817.91
2023-01-10T03:52:13.266Z,100829.25
2023-01-10T03:54:43.358Z,100823.69
2023-01-10T03:57:18.072Z,100833.91
2023-01-10T03:59:46.435Z,100833.19
2023-01-10T04:02:14.364Z,100843.13
2023-01-10T04:04:42.299Z,100847.63
2023-01-10T04:07:11.594Z,100852.41
2023-01-10T04:09:39.501Z,100863.97
2023-01-10T04:12:07.414Z,100861.59
2023-01-10T04:14:35.293Z,100869.59
2023-01-10T04:17:03.176Z,100865.03
2023-01-10T04:19:31.048Z,100875.47
2023-01-10T04:21:58.949Z,100884.22
2023-01-10T04:24:28.152Z,100892.31
2023-01-10T04:26:55.971Z,100895.31
2023-01-10T04:29:23.916Z,100904.59
2023-01-10T04:31:52.088Z,100908.53
2023-01-10T04:34:20.157Z,100903.75
2023-01-10T04:36:50.467Z,100909.63
2023-01-10T04:39:18.499Z,100915.78
2023-01-10T04:41:47.696Z,100917.53
2023-01-10T04:44:15.576Z,100924.59
2023-01-10T04:46:43.448Z,100921.38
2023-01-10T04:49:11.472Z,100936.75
2023-01-10T04:51:39.552Z,100940.16
2023-01-10T04:54:07.467Z,100952.78
2023-01-10T04:56:36.074Z,100955.09
2023-01-10T04:59:06.534Z,100960.81
2023-01-10T05:01:35.446Z,100965.59
2023-01-10T05:04:03.968Z,100973.91
2023-01-10T05:06:31.917Z,100978.19
2023-01-10T05:08:59.995Z,100984.38
2023-01-10T05:11:28.101Z,100991.84
2023-01-10T05:13:55.995Z,100988.19
2023-01-10T05:16:25.453Z,100995.16
2023-01-10T05:18:53.355Z,101005.19
2023-01-10T05:21:21.272Z,101013.88
2023-01-10T05:23:49.174Z,101022.94
2023-01-10T05:26:18.748Z,101030.09
2023-01-10T05:28:46.723Z,101024.72
2023-01-10T05:31:16.854Z,101032.41
2023-01-10T05:33:47.233Z,101031.56
2023-01-10T05:36:16.032Z,101036.03
2023-01-10T05:38:44.164Z,101049.41
2023-01-10T05:41:12.089Z,101046.00
2023-01-10T05:43:39.950Z,101052.06
2023-01-10T05:46:08.286Z,101053.78
2023-01-10T05:48:36.281Z,101062.53
2023-01-10T05:51:05.931Z,101061.03
2023-01-10T05:53:33.973Z,101069.50
2023-01-10T05:56:03.356Z,101069.59
2023-01-10T05:58:31.510Z,101068.66
2023-01-10T06:00:59.888Z,101077.53
2023-01-10T06:03:28.184Z,101083.47
2023-01-10T06:05:57.068Z,101088.94
2023-01-10T06:08:26.435Z,101099.72
2023-01-10T06:10:54.348Z,101105.47
2023-01-10T06:13:22.421Z,101109.16
2023-01-10T06:15:50.837Z,101124.41
2023-01-10T06:18:18.736Z,101117.25
2023-01-10T06:20:46.814Z,101128.34
2023-01-10T06:23:15.232Z,101126.19
2023-01-10T06:25:44.751Z,101132.97
2023-01-10T06:28:14.630Z,101131.09
2023-01-10T06:30:43.600Z,101138.41
2023-01-10T06:33:12.978Z,101145.13
2023-01-10T06:35:40.955Z,101152.31
2023-01-10T06:38:08.979Z,101161.91
2023-01-10T06:40:36.849Z,101157.41
2023-01-10T06:43:06.238Z,101169.63
2023-01-10T06:45:34.507Z,101170.50
2023-01-10T06:48:02.519Z,101177.66
2023-01-10T06:50:31.726Z,101173.47
2023-01-10T06:53:00.789Z,101188.84
2023-01-10T06:55:29.600Z,101196.19
2023-01-10T06:57:58.169Z,101204.44
2023-01-10T07:00:28.511Z,101201.19
2023-01-10T07:02:57.388Z,101208.69
2023-01-10T07:05:25.584Z,101203.09
2023-01-10T07:07:53.492Z,101212.34
2023-01-10T07:10:21.433Z,101212.84
2023-01-10T07:12:49.297Z,101224.81
2023-01-10T07:15:17.256Z,101226.81
2023-01-10T07:17:46.526Z,101225.88
2023-01-10T07:20:14.615Z,101229.09
2023-01-10T07:22:43.811Z,101233.25
2023-01-10T07:25:11.698Z,101237.84
2023-01-10T07:27:43.291Z,101239.81
2023-01-10T07:30:12.431Z,101243.53
2023-01-10T07:32:40.382Z,101256.63
2023-01-10T07:35:10.637Z,101256.63
2023-01-10T07:37:38.572Z,101260.00
2023-01-10T07:40:07.441Z,101269.28
2023-01-10T07:42:35.285Z,101276.97
2023-01-10T07:45:03.178Z,101285.16
2023-01-10T07:47:31.137Z,101286.13
2023-01-10T07:49:58.973Z,101287.25
2023-01-10T07:52:28.256Z,101291.66
2023-01-10T07:54:56.132Z,101300.78
2023-01-10T07:57:24.029Z,101305.25
2023-01-10T07:59:51.946Z,101310.09
2023-01-10T08:02:19.844Z,101312.09
2023-01-10T08:04:47.732Z,101309.16
2023-01-10T08:07:15.667Z,101322.81
2023-01-10T08:09:44.915Z,101315.56
2023-01-10T08:12:12.842Z,101320.50
2023-01-10T08:14:41.013Z,101328.16
2023-01-10T08:17:10.114Z,101331.13
2023-01-10T08:19:37.993Z,101337.03
2023-01-10T08:22:05.976Z,101344.06
2023-01-10T08:24:33.879Z,101353.47
2023-01-10T08:27:03.466Z,101360.34
2023-01-10T08:29:31.536Z,101358.72
2023-01-10T08:31:59.396Z,101362.03
2023-01-10T08:34:27.874Z,101357.63
2023-01-10T08:36:56.367Z,101355.03
2023-01-10T08:39:26.477Z,101358.22
2023-01-10T08:41:54.714Z,101360.88
2023-01-10T08:44:24.214Z,101370.16
2023-01-10T08:46:52.121Z,101373.19
2023-01-10T08:49:20.003Z,101380.13
2023-01-10T08:51:47.860Z,101377.00
2023-01-10T08:54:16.378Z,101372.53
2023-01-10T08:56:44.276Z,101378.47
2023-01-10T08:59:12.128Z,101392.44
2023-01-10T09:01:41.552Z,101402.00
2023-01-10T09:04:09.456Z,101393.56
2023-01-10T09:06:37.832Z,101404.44
2023-01-10T09:09:05.999Z,101405.09
2023-01-10T09:11:33.898Z,101421.00
2023-01-10T09:14:01.761Z,101418.63
2023-01-10T09:16:29.653Z,101417.94
2023-01-10T09:18:58.965Z,101425.25
2023-01-10T09:21:28.539Z,101421.16
2023-01-10T09:23:56.486Z,101420.78
2023-01-10T09:26:24.431Z,101425.50
2023-01-10T09:28:52.308Z,101425.81
2023-01-10T09:31:20.280Z,101427.25
2023-01-10T09:33:49.804Z,101437.66
2023-01-10T09:36:19.139Z,101428.53
2023-01-10T09:38:47.071Z,101435.09
2023-01-10T09:41:52.652Z,101436.94
2023-01-10T09:44:26.356Z,101446.25
2023-01-10T09:47:08.438Z,101450.91
2023-01-10T09:49:49.412Z,101454.28
2023-01-10T09:52:24.726Z,101466.78
2023-01-10T09:54:55.757Z,101453.75
2023-01-10T09:57:24.753Z,101461.53
2023-01-10T09:59:54.637Z,101455.16
2023-01-10T10:02:28.703Z,101461.16
2023-01-10T10:05:11.579Z,101457.09
2023-01-10T10:07:41.375Z,101459.03
2023-01-10T10:10:17.552Z,101447.50
2023-01-10T10:12:56.356Z,101450.94
2023-01-10T10:15:33.420Z,101441.41
2023-01-10T10:18:12.175Z,101455.09
2023-01-10T10:20:51.485Z,101451.00
2023-01-10T10:23:37.167Z,101457.97
2023-01-10T10:26:11.568Z,101460.31
2023-01-10T10:29:06.253Z,101464.81
2023-01-10T10:31:51.752Z,101455.81
2023-01-10T10:34:26.387Z,101463.75
2023-01-10T10:36:58.088Z,101470.38
2023-01-10T10:39:40.765Z,101478.53
2023-01-10T10:42:14.535Z,101481.41
2023-01-10T10:44:47.221Z,101467.81
2023-01-10T10:47:17.576Z,101476.06
2023-01-10T10:49:51.820Z,101478.75
2023-01-10T10:52:25.433Z,101475.19
2023-01-10T10:54:55.778Z,101481.84
2023-01-10T10:57:28.785Z,101480.06
2023-01-10T10:59:58.590Z,101489.56
2023-01-10T11:02:29.157Z,101502.69
2023-01-10T11:05:01.194Z,101503.06
2023-01-10T11:07:34.069Z,101501.66
2023-01-10T11:10:23.242Z,101499.69
2023-01-10T11:12:53.083Z,101497.03
2023-01-10T11:15:37.899Z,101496.66
2023-01-10T11:18:08.081Z,101470.84
2023-01-10T11:20:36.197Z,101472.56
2023-01-10T11:23:05.336Z,101467.00
2023-01-10T11:25:34.744Z,101466.25
2023-01-10T11:28:02.812Z,101474.81
2023-01-10T11:30:33.488Z,101484.47
2023-01-10T11:33:02.781Z,101486.91
2023-01-10T11:35:33.570Z,101492.03
2023-01-10T11:38:04.667Z,101472.78
2023-01-10T11:40:34.715Z,101469.34
2023-01-10T11:43:25.059Z,101472.13
2023-01-10T11:45:56.124Z,101485.69
2023-01-10T11:48:48.154Z,101486.53
2023-01-10T11:51:21.086Z,101497.81
2023-01-10T11:53:51.353Z,101485.41
2023-01-10T11:56:27.793Z,101495.28
2023-01-10T11:58:56.316Z,101502.75
2023-01-10T12:01:29.463Z,101507.50
2023-01-10T12:03:58.036Z,101508.97
2023-01-10T12:06:26.556Z,101503.09
2023-01-10T12:08:56.285Z,101501.91
2023-01-10T12:11:29.964Z,101496.44
2023-01-10T12:14:00.267Z,101506.50
2023-01-10T12:16:29.705Z,101500.13
2023-01-10T12:19:00.689Z,101496.13
2023-01-10T12:21:35.745Z,101494.84
2023-01-10T12:24:08.701Z,101489.16
2023-01-10T12:26:38.543Z,101488.66
2023-01-10T12:29:13.537Z,101495.91
2023-01-10T12:31:42.060Z,101497.00
2023-01-10T12:34:16.987Z,101506.31
2023-01-10T12:36:55.920Z,101505.34
2023-01-10T12:39:26.006Z,101510.50
2023-01-10T12:42:23.049Z,101520.13
2023-01-10T12:44:54.377Z,101512.41
2023-01-10T12:47:31.744Z,101515.44
2023-01-10T12:50:03.962Z,101514.78
2023-01-10T12:52:45.536Z,101523.59
2023-01-10T12:55:17.379Z,101524.84
2023-01-10T12:57:51.874Z,101533.00
2023-01-10T13:00:25.263Z,101536.94
2023-01-10T13:02:57.007Z,101540.50
2023-01-10T13:05:27.564Z,101537.41
2023-01-10T13:08:03.040Z,101552.94
2023-01-10T13:10:32.339Z,101541.13
2023-01-10T13:13:08.589Z,101548.56
2023-01-10T13:15:42.928Z,101559.09
2023-01-10T13:18:21.202Z,101566.97
2023-01-10T13:20:49.212Z,101571.13
2023-01-10T13:23:30.227Z,101572.50
2023-01-10T13:26:02.864Z,101573.28
2023-01-10T13:28:34.717Z,101571.34
2023-01-10T13:31:06.164Z,101576.47
2023-01-10T13:33:40.298Z,101567.91
2023-01-10T13:36:12.164Z,101577.44
2023-01-10T13:38:50.009Z,101580.34
2023-01-10T13:41:35.957Z,101574.72
2023-01-10T13:44:11.224Z,101573.41
2023-01-10T13:46:45.219Z,101576.94
2023-01-10T13:49:26.058Z,101571.56
2023-01-10T13:52:39.579Z,101576.06
2023-01-10T13:55:34.204Z,101572.13
2023-01-10T13:58:04.385Z,101579.72
2023-01-10T14:01:07.355Z,101578.72
2023-01-10T14:03:44.904Z,101581.22
2023-01-10T14:06:19.225Z,101582.00
2023-01-10T14:08:53.473Z,101578.53
2023-01-10T14:11:23.128Z,101580.59
2023-01-10T14:13:54.646Z,101586.91
2023-01-10T14:16:39.088Z,101586.47
2023-01-10T14:19:22.889Z,101592.22
2023-01-10T14:21:54.129Z,101587.63
2023-01-10T14:24:27.082Z,101587.72
2023-01-10T14:26:57.460Z,101592.72
2023-01-10T14:29:30.632Z,101597.16
2023-01-10T14:32:01.193Z,101593.78
2023-01-10T14:34:31.567Z,101601.56
2023-01-10T14:37:02.241Z,101596.41
2023-01-10T14:39:31.747Z,101593.44
2023-01-10T14:42:02.885Z,101593.41
2023-01-10T14:44:33.631Z,101591.47
2023-01-10T14:47:04.533Z,101585.44
2023-01-10T14:49:36.097Z,101587.84
2023-01-10T14:52:14.899Z,101598.00
2023-01-10T14:54:42.799Z,101598.78
2023-01-10T14:57:19.778Z,101596.03
2023-01-10T14:59:48.376Z,101598.78
2023-01-10T15:02:23.194Z,101602.53
2023-01-10T15:04:55.774Z,101602.16
2023-01-10T15:07:25.411Z,101598.19
2023-01-10T15:09:56.431Z,101605.28
2023-01-10T15:12:26.741Z,101581.78
2023-01-10T15:15:01.717Z,101597.25
2023-01-10T15:17:32.653Z,101583.88
2023-01-10T15:20:00.614Z,101583.41
2023-01-10T15:22:31.141Z,101589.75
2023-01-10T15:25:01.084Z,101588.78
2023-01-10T15:27:29.984Z,101593.09
2023-01-10T15:29:58.972Z,101595.34
2023-01-10T15:32:35.665Z,101598.50
2023-01-10T15:35:04.124Z,101592.56
2023-01-10T15:37:36.521Z,101590.75
2023-01-10T15:40:07.745Z,101584.91
2023-01-10T15:42:36.748Z,101595.25
2023-01-10T15:45:19.130Z,101601.31
2023-01-10T15:48:03.525Z,101601.66
2023-01-10T15:50:35.361Z,101608.28
2023-01-10T15:53:06.284Z,101605.78
2023-01-10T15:55:45.249Z,101607.91
2023-01-10T15:58:18.784Z,101605.31
2023-01-10T16:00:47.759Z,101610.00
2023-01-10T16:03:24.545Z,101609.50
2023-01-10T16:05:59.211Z,101610.00
2023-01-10T16:08:29.735Z,101609.91
2023-01-10T16:10:59.695Z,101608.88
2023-01-10T16:13:27.770Z,101603.66
2023-01-10T16:15:56.534Z,101609.31
2023-01-10T16:18:26.253Z,101604.56
2023-01-10T16:20:57.333Z,101609.03
2023-01-10T16:23:28.468Z,101598.03
2023-01-10T16:25:59.223Z,101589.38
2023-01-10T16:28:30.910Z,101596.63
2023-01-10T16:30:58.753Z,101585.34
2023-01-10T16:33:28.012Z,101588.38
2023-01-10T16:35:58.069Z,101589.16
2023-01-10T16:38:28.635Z,101596.63
2023-01-10T16:40:59.467Z,101585.53
2023-01-10T16:43:29.060Z,101592.41
2023-01-10T16:46:00.099Z,101597.84
2023-01-10T16:48:30.963Z,101596.34
2023-01-10T16:51:19.408Z,101593.97
2023-01-10T16:53:47.729Z,101601.78
2023-01-10T16:56:18.524Z,101608.88
2023-01-10T16:58:47.589Z,101610.00
2023-01-10T17:01:19.371Z,101604.91
2023-01-10T17:03:48.850Z,101600.25
2023-01-10T17:06:17.077Z,101596.44
2023-01-10T17:08:45.429Z,101592.91
2023-01-10T17:11:18.492Z,101590.91
2023-01-10T17:13:47.313Z,101598.84
2023-01-10T17:16:19.421Z,101593.41
2023-01-10T17:18:49.047Z,101598.94
2023-01-10T17:21:18.978Z,101597.09
2023-01-10T17:23:47.582Z,101597.19
2023-01-10T17:26:17.570Z,101601.22
2023-01-10T17:28:46.690Z,101592.34
2023-01-10T17:31:14.572Z,101595.66
2023-01-10T17:33:42.383Z,101598.50
2023-01-10T17:36:12.830Z,101608.78
2023-01-10T17:38:42.976Z,101616.91
2023-01-10T17:41:11.342Z,101621.28
2023-01-10T17:43:39.754Z,101623.28
2023-01-10T17:46:07.698Z,101607.25
2023-01-10T17:48:36.741Z,101614.66
2023-01-10T17:51:05.429Z,101605.06
2023-01-10T17:53:35.095Z,101608.69
2023-01-10T17:56:03.308Z,101603.56
2023-01-10T17:58:31.348Z,101608.03
2023-01-10T18:00:59.300Z,101603.06
2023-01-10T18:03:27.713Z,101611.75
2023-01-10T18:05:58.195Z,101610.19
2023-01-10T18:08:27.214Z,101601.75
2023-01-10T18:11:01.371Z,101602.22
2023-01-10T18:13:31.491Z,101598.00
2023-01-10T18:16:00.512Z,101598.31
2023-01-10T18:18:28.615Z,101597.13
2023-01-10T18:21:00.865Z,101596.84
2023-01-10T18:23:30.648Z,101594.47
2023-01-10T18:26:01.432Z,101594.38
2023-01-10T18:28:40.557Z,101596.59
2023-01-10T18:31:12.685Z,101593.69
2023-01-10T18:33:41.149Z,101599.81
2023-01-10T18:36:14.229Z,101594.56
2023-01-10T18:38:42.141Z,101595.59
2023-01-10T18:41:11.425Z,101594.66
2023-01-10T18:43:39.414Z,101594.16
2023-01-10T18:46:10.491Z,101592.03
2023-01-10T18:48:38.748Z,101580.44
2023-01-10T18:51:08.960Z,101592.03
2023-01-10T18:53:37.123Z,101577.00
2023-01-10T18:56:06.209Z,101586.94
2023-01-10T18:58:38.178Z,101582.25
2023-01-10T19:01:07.646Z,101578.47
2023-01-10T19:03:36.126Z,101575.28
2023-01-10T19:06:05.460Z,101579.34
2023-01-10T19:08:33.540Z,101572.69
2023-01-10T19:11:13.492Z,101569.16
2023-01-10T19:13:44.460Z,101572.97
2023-01-10T19:16:13.880Z,101581.00
2023-01-10T19:18:41.921Z,101572.22
2023-01-10T19:21:15.265Z,101562.16
2023-01-10T19:23:43.486Z,101565.69
2023-01-10T19:26:11.875Z,101559.72
2023-01-10T19:28:39.912Z,101563.69
2023-01-10T19:31:09.515Z,101559.25
2023-01-10T19:33:38.443Z,101557.00
2023-01-10T19:36:07.429Z,101561.66
2023-01-10T19:38:35.527Z,101564.53
2023-01-10T19:41:03.776Z,101551.31
2023-01-10T19:43:32.136Z,101541.00
2023-01-10T19:46:00.089Z,101541.00
2023-01-10T19:48:29.390Z,101539.19
2023-01-10T19:50:57.271Z,101548.06
2023-01-10T19:53:27.144Z,101538.25
2023-01-10T19:56:01.967Z,101541.03
2023-01-10T19:58:30.280Z,101535.88
2023-01-10T20:00:58.269Z,101539.72
2023-01-10T20:03:26.184Z,101537.22
2023-01-10T20:05:55.519Z,101539.09
2023-01-10T20:08:23.656Z,101531.03
2023-01-10T20:10:51.521Z,101529.50
2023-01-10T20:13:19.424Z,101520.19
2023-01-10T20:15:47.336Z,101521.25
2023-01-10T20:18:15.248Z,101511.19
2023-01-10T20:20:44.399Z,101516.53
2023-01-10T20:23:13.633Z,101510.91
2023-01-10T20:25:41.596Z,101516.69
2023-01-10T20:28:09.511Z,101513.75
2023-01-10T20:30:37.681Z,101507.13
2023-01-10T20:33:05.640Z,101508.84
2023-01-10T20:35:33.540Z,101507.69
2023-01-10T20:38:06.508Z,101507.53
2023-01-10T20:40:35.810Z,101504.72
2023-01-10T20:43:03.676Z,101504.38
2023-01-10T20:45:31.532Z,101504.19
2023-01-10T20:47:59.730Z,101509.63
2023-01-10T20:50:27.576Z,101507.44
2023-01-10T20:52:55.431Z,101496.38
2023-01-10T20:55:23.467Z,101490.38
2023-01-10T20:57:52.757Z,101486.66
2023-01-10T21:00:21.292Z,101492.69
2023-01-10T21:02:49.219Z,101485.81
2023-01-10T21:05:17.145Z,101481.19
2023-01-10T21:07:45.131Z,101493.34
2023-01-10T21:10:13.264Z,101501.97
2023-01-10T21:12:41.143Z,101493.53
2023-01-10T21:15:11.489Z,101500.00
2023-01-10T21:17:42.027Z,101488.22
2023-01-10T21:20:11.858Z,101488.38
2023-01-10T21:22:39.719Z,101495.09
2023-01-10T21:25:08.440Z,101482.00
2023-01-10T21:27:36.320Z,101481.19
2023-01-10T21:30:06.192Z,101474.00
2023-01-10T21:32:35.458Z,101472.09
2023-01-10T21:35:03.346Z,101468.91
2023-01-10T21:37:31.186Z,101472.53
2023-01-10T21:39:59.788Z,101459.56
2023-01-10T21:42:38.344Z,101457.25
2023-01-10T21:45:08.493Z,101460.81
2023-01-10T21:47:38.487Z,101456.66
2023-01-10T21:50:08.331Z,101454.34
2023-01-10T21:52:36.397Z,101451.66
2023-01-10T21:55:04.647Z,101446.41
2023-01-10T21:57:32.461Z,101438.44
2023-01-10T22:00:00.384Z,101433.59
2023-01-10T22:02:30.714Z,101441.16
2023-01-10T22:04:59.964Z,101436.97
2023-01-10T22:07:29.745Z,101429.13
2023-01-10T22:09:57.593Z,101418.66
2023-01-10T22:12:26.426Z,101421.03
2023-01-10T22:14:54.398Z,101416.84
2023-01-10T22:17:22.254Z,101417.50
2023-01-10T22:19:50.172Z,101412.47
2023-01-10T22:22:19.475Z,101419.72
2023-01-10T22:24:48.041Z,101413.53
2023-01-10T22:27:16.628Z,101406.88
2023-01-10T22:29:45.284Z,101404.06
2023-01-10T22:32:13.122Z,101398.88
2023-01-10T22:34:41.002Z,101392.47
2023-01-10T22:37:08.873Z,101403.56
2023-01-10T22:39:38.160Z,101389.03
2023-01-10T22:42:06.079Z,101386.66
2023-01-10T22:44:34.196Z,101384.59
2023-01-10T22:47:02.113Z,101386.34
2023-01-10T22:49:29.959Z,101382.28
2023-01-10T22:51:57.804Z,101385.88
2023-01-10T22:54:25.665Z,101368.31
2023-01-10T22:56:54.900Z,101364.53
2023-01-10T22:59:22.833Z,101373.84
2023-01-10T23:01:50.700Z,101359.13
2023-01-10T23:04:20.355Z,101360.84
2023-01-10T23:06:48.512Z,101359.19
2023-01-10T23:09:16.634Z,101350.66
2023-01-10T23:11:44.468Z,101346.69
2023-01-10T23:14:16.468Z,101344.69
2023-01-10T23:16:44.746Z,101341.09
2023-01-10T23:19:12.868Z,101344.72
2023-01-10T23:21:40.768Z,101331.03
2023-01-10T23:24:09.028Z,101340.19
2023-01-10T23:26:37.013Z,101341.31
2023-01-10T23:29:04.883Z,101331.28
2023-01-10T23:31:34.185Z,101337.69
2023-01-10T23:34:02.229Z,101326.28
2023-01-10T23:36:30.096Z,101315.31
2023-01-10T23:38:58.161Z,101308.94
2023-01-10T23:41:26.187Z,101314.53
2023-01-10T23:43:54.239Z,101304.44
2023-01-10T23:46:22.253Z,101309.72
2023-01-10T23:48:51.588Z,101300.88
2023-01-10T23:51:19.512Z,101290.63
2023-01-10T23:53:47.414Z,101295.97
2023-01-10T23:56:16.218Z,101272.81
2023-01-10T23:58:44.283Z,101279.91
